Florida, New York
Current Conditions -  °F | °C
As of 6:54 PM on Friday 19 Dec 2014 (Local Time) from KMGJ Reporting Station
Overcast Overcast  
Wind Chill: 23°   Ceiling: 3600
Heat Index: 31°   Visibility: 10mi
Dew Point: 20°   Wind: 8mph
Humidity: 64%   Direction: 310°NW
Pressure: 30.13"   Gusts: NA
Location:  41.33°N, 74.36°W
Report Text: KMGJ 192354Z AUTO 31007KT 10SM OVC036 M01/M07 A3013 RMK AO2 SLP205 T10061067 10022 21006 51022 TSNO
Loading
Personal Weather Stations






























Interactive Weather Map New forecast layout! Learn more

10-Day Weather Forecast

Advertisements
Track Severe Weather on mobile